BOX11T EHRD-EGGD
Flight info
| Callsign | BOX11T |
|---|---|
| Flight time | 0h 43m |
| Altitude | 35000 |
| Route | ABNED L980 LAM L179 ICTAM |
| Aircraft | B77L/H-SDE1E2E3FGHIJ2J3J4J5M1RWXY/LB1D1 |
Departure
| Time | 2026-05-05 22:46 |
|---|---|
| Airport | Rotterdam The Hague Airport (EHRD) |
Arrival
| Time | 2026-05-05 23:30 |
|---|---|
| Airport | Bristol Airport (EGGD) |
| Time | Latitude | Longitude | Altitude | Speed | Heading |
|---|---|---|---|---|---|
| 2026-05-05 22:42 | 51.95078 | 4.43927 | 5 ft | 0 kts | 237° |
| 2026-05-05 22:42 | 51.95077 | 4.43926 | 5 ft | 1 kts | 237° |
| 2026-05-05 22:43 | 51.95051 | 4.43858 | 5 ft | 9 kts | 238° |
| 2026-05-05 22:43 | 51.95027 | 4.43795 | 5 ft | 9 kts | 239° |
| 2026-05-05 22:43 | 51.95031 | 4.43738 | 5 ft | 6 kts | 312° |
| 2026-05-05 22:43 | 51.95069 | 4.43694 | 5 ft | 7 kts | 327° |
| 2026-05-05 22:44 | 51.95118 | 4.43642 | 5 ft | 10 kts | 327° |
| 2026-05-05 22:44 | 51.95180 | 4.43577 | 5 ft | 11 kts | 327° |
| 2026-05-05 22:44 | 51.95249 | 4.43505 | 5 ft | 12 kts | 325° |
| 2026-05-05 22:44 | 51.95251 | 4.43417 | 6 ft | 9 kts | 239° |
| 2026-05-05 22:45 | 51.95186 | 4.43261 | 5 ft | 20 kts | 236° |
| 2026-05-05 22:45 | 51.95123 | 4.43064 | 5 ft | 17 kts | 247° |
| 2026-05-05 22:45 | 51.95135 | 4.42919 | 5 ft | 11 kts | 327° |
| 2026-05-05 22:45 | 51.95210 | 4.42857 | 7 ft | 9 kts | 349° |
| 2026-05-05 22:46 | 51.95257 | 4.42944 | 6 ft | 20 kts | 58° |
| 2026-05-05 22:46 | 51.95517 | 4.43594 | 3 ft | 124 kts | 57° |
| 2026-05-05 22:46 | 51.96145 | 4.45161 | 311 ft | 187 kts | 56° |
| 2026-05-05 22:46 | 51.96805 | 4.46851 | 1709 ft | 176 kts | 57° |
| 2026-05-05 22:47 | 51.97444 | 4.48602 | 2672 ft | 189 kts | 58° |
| 2026-05-05 22:47 | 51.98198 | 4.50498 | 3255 ft | 211 kts | 47° |
| 2026-05-05 22:47 | 51.99471 | 4.51945 | 3832 ft | 234 kts | 19° |
| 2026-05-05 22:47 | 52.01170 | 4.52227 | 4366 ft | 259 kts | 346° |
| 2026-05-05 22:48 | 52.03472 | 4.44645 | 7962 ft | 273 kts | 244° |
| 2026-05-05 22:48 | 52.02741 | 4.42996 | 8653 ft | 278 kts | 223° |
| 2026-05-05 22:48 | 52.01530 | 4.41582 | 9397 ft | 281 kts | 212° |
| 2026-05-05 22:48 | 51.99442 | 4.39491 | 10509 ft | 292 kts | 214° |
| 2026-05-05 22:49 | 51.97734 | 4.37488 | 10910 ft | 316 kts | 226° |
| 2026-05-05 22:49 | 51.96450 | 4.34449 | 11237 ft | 345 kts | 246° |
| 2026-05-05 22:49 | 51.95769 | 4.30673 | 12101 ft | 355 kts | 262° |
| 2026-05-05 22:49 | 51.95475 | 4.26654 | 13202 ft | 362 kts | 264° |
| 2026-05-05 22:50 | 51.95190 | 4.22579 | 14327 ft | 367 kts | 263° |
| 2026-05-05 22:50 | 51.94875 | 4.18442 | 15430 ft | 372 kts | 263° |
| 2026-05-05 22:50 | 51.94529 | 4.14236 | 16473 ft | 378 kts | 262° |
| 2026-05-05 22:50 | 51.94165 | 4.09978 | 17460 ft | 385 kts | 262° |
| 2026-05-05 22:51 | 51.93778 | 4.05649 | 18422 ft | 391 kts | 262° |
| 2026-05-05 22:51 | 51.93356 | 4.01257 | 19360 ft | 396 kts | 261° |
| 2026-05-05 22:51 | 51.92919 | 3.96807 | 20269 ft | 402 kts | 261° |
| 2026-05-05 22:51 | 51.92473 | 3.92298 | 21132 ft | 408 kts | 261° |
| 2026-05-05 22:52 | 51.92028 | 3.87802 | 21986 ft | 413 kts | 261° |
| 2026-05-05 22:52 | 51.91570 | 3.83157 | 22804 ft | 419 kts | 261° |
| 2026-05-05 22:52 | 51.91107 | 3.78471 | 23612 ft | 424 kts | 261° |
| 2026-05-05 22:52 | 51.90637 | 3.73720 | 24398 ft | 429 kts | 261° |
| 2026-05-05 22:53 | 51.90159 | 3.68909 | 25155 ft | 434 kts | 261° |
| 2026-05-05 22:53 | 51.89676 | 3.64055 | 25883 ft | 439 kts | 261° |
| 2026-05-05 22:53 | 51.89181 | 3.59116 | 26600 ft | 444 kts | 261° |
| 2026-05-05 22:53 | 51.88689 | 3.54219 | 27275 ft | 449 kts | 261° |
| 2026-05-05 22:54 | 51.88182 | 3.49197 | 27948 ft | 454 kts | 261° |
| 2026-05-05 22:54 | 51.87666 | 3.44112 | 28593 ft | 459 kts | 261° |
| 2026-05-05 22:54 | 51.87145 | 3.38992 | 29220 ft | 463 kts | 261° |
| 2026-05-05 22:54 | 51.86616 | 3.33827 | 29828 ft | 467 kts | 261° |
| 2026-05-05 22:55 | 51.86082 | 3.28625 | 30578 ft | 467 kts | 261° |
| 2026-05-05 22:55 | 51.85551 | 3.23466 | 31431 ft | 464 kts | 261° |
| 2026-05-05 22:55 | 51.85018 | 3.18336 | 32236 ft | 461 kts | 261° |
| 2026-05-05 22:55 | 51.84559 | 3.13281 | 32945 ft | 459 kts | 263° |
| 2026-05-05 22:56 | 51.84216 | 3.08139 | 33611 ft | 459 kts | 265° |
| 2026-05-05 22:56 | 51.83920 | 3.02997 | 34263 ft | 458 kts | 265° |
| 2026-05-05 22:56 | 51.83627 | 2.97870 | 34872 ft | 457 kts | 265° |
| 2026-05-05 22:56 | 51.83318 | 2.92711 | 35054 ft | 463 kts | 264° |
| 2026-05-05 22:57 | 51.82993 | 2.87581 | 35046 ft | 461 kts | 264° |
| 2026-05-05 22:57 | 51.82314 | 2.77328 | 35038 ft | 455 kts | 264° |
| 2026-05-05 22:58 | 51.81632 | 2.67174 | 35047 ft | 454 kts | 264° |
| 2026-05-05 22:58 | 51.80942 | 2.57088 | 35049 ft | 454 kts | 264° |
| 2026-05-05 22:59 | 51.80236 | 2.46929 | 35047 ft | 455 kts | 264° |
| 2026-05-05 22:59 | 51.79521 | 2.36746 | 35048 ft | 456 kts | 264° |
| 2026-05-05 23:00 | 51.78437 | 2.21488 | 35046 ft | 457 kts | 264° |
| 2026-05-05 23:00 | 51.77811 | 2.11232 | 35046 ft | 458 kts | 265° |
| 2026-05-05 23:01 | 51.77233 | 2.01045 | 35046 ft | 458 kts | 265° |
| 2026-05-05 23:01 | 51.76627 | 1.90783 | 35046 ft | 457 kts | 264° |
| 2026-05-05 23:02 | 51.76005 | 1.80563 | 35046 ft | 457 kts | 264° |
| 2026-05-05 23:02 | 51.75373 | 1.70347 | 35045 ft | 457 kts | 264° |
| 2026-05-05 23:03 | 51.74734 | 1.60149 | 35045 ft | 456 kts | 264° |
| 2026-05-05 23:03 | 51.74080 | 1.50033 | 35047 ft | 456 kts | 264° |
| 2026-05-05 23:04 | 51.73413 | 1.39855 | 35047 ft | 456 kts | 264° |
| 2026-05-05 23:04 | 51.72739 | 1.29670 | 35047 ft | 455 kts | 264° |
| 2026-05-05 23:05 | 51.72059 | 1.19500 | 35047 ft | 456 kts | 264° |
| 2026-05-05 23:05 | 51.71375 | 1.09390 | 35046 ft | 456 kts | 264° |
| 2026-05-05 23:06 | 51.70690 | 0.99220 | 35046 ft | 456 kts | 264° |
| 2026-05-05 23:06 | 51.69996 | 0.89049 | 35046 ft | 456 kts | 264° |
| 2026-05-05 23:07 | 51.69290 | 0.78934 | 35034 ft | 450 kts | 264° |
| 2026-05-05 23:07 | 51.68551 | 0.68874 | 35059 ft | 461 kts | 263° |
| 2026-05-05 23:08 | 51.67806 | 0.58589 | 35042 ft | 460 kts | 264° |
| 2026-05-05 23:08 | 51.67083 | 0.48348 | 35041 ft | 458 kts | 264° |
| 2026-05-05 23:09 | 51.66347 | 0.38233 | 35042 ft | 456 kts | 263° |
| 2026-05-05 23:09 | 51.65582 | 0.28111 | 35043 ft | 454 kts | 263° |
| 2026-05-05 23:10 | 51.64816 | 0.18031 | 35039 ft | 447 kts | 263° |
| 2026-05-05 23:10 | 51.64430 | 0.13133 | 35026 ft | 435 kts | 262° |
| 2026-05-05 23:10 | 51.63948 | 0.08362 | 34800 ft | 429 kts | 260° |
| 2026-05-05 23:11 | 51.62858 | -0.01180 | 34759 ft | 445 kts | 260° |
| 2026-05-05 23:11 | 51.62307 | -0.06161 | 34766 ft | 457 kts | 260° |
| 2026-05-05 23:11 | 51.61753 | -0.11268 | 34767 ft | 469 kts | 260° |
| 2026-05-05 23:12 | 51.60786 | -0.21815 | 34606 ft | 491 kts | 263° |
| 2026-05-05 23:12 | 51.60351 | -0.27354 | 34116 ft | 502 kts | 263° |
| 2026-05-05 23:12 | 51.59916 | -0.32945 | 33383 ft | 501 kts | 263° |
| 2026-05-05 23:13 | 51.59477 | -0.38476 | 32503 ft | 497 kts | 263° |
| 2026-05-05 23:13 | 51.59027 | -0.43976 | 31737 ft | 491 kts | 263° |
| 2026-05-05 23:13 | 51.58574 | -0.49390 | 31004 ft | 485 kts | 262° |
| 2026-05-05 23:13 | 51.58120 | -0.54733 | 30295 ft | 480 kts | 262° |
| 2026-05-05 23:14 | 51.57667 | -0.60016 | 29595 ft | 474 kts | 262° |
| 2026-05-05 23:14 | 51.57216 | -0.65247 | 28882 ft | 469 kts | 262° |
| 2026-05-05 23:14 | 51.56767 | -0.70419 | 28177 ft | 464 kts | 262° |
| 2026-05-05 23:14 | 51.56322 | -0.75545 | 27461 ft | 460 kts | 262° |
| 2026-05-05 23:15 | 51.55883 | -0.80562 | 26795 ft | 455 kts | 262° |
| 2026-05-05 23:15 | 51.55443 | -0.85580 | 26111 ft | 451 kts | 262° |
| 2026-05-05 23:15 | 51.55004 | -0.90560 | 25444 ft | 446 kts | 262° |
| 2026-05-05 23:15 | 51.54567 | -0.95490 | 24781 ft | 442 kts | 262° |
| 2026-05-05 23:16 | 51.54134 | -1.00356 | 24123 ft | 438 kts | 262° |
| 2026-05-05 23:16 | 51.53703 | -1.05177 | 23479 ft | 434 kts | 262° |
| 2026-05-05 23:16 | 51.53274 | -1.09957 | 22842 ft | 430 kts | 262° |
| 2026-05-05 23:16 | 51.52855 | -1.14699 | 22208 ft | 426 kts | 264° |
| 2026-05-05 23:17 | 51.52886 | -1.19320 | 21698 ft | 413 kts | 280° |
| 2026-05-05 23:17 | 51.53484 | -1.23758 | 21320 ft | 402 kts | 282° |
| 2026-05-05 23:17 | 51.54068 | -1.28149 | 20909 ft | 399 kts | 282° |
| 2026-05-05 23:17 | 51.54615 | -1.32523 | 20511 ft | 400 kts | 281° |
| 2026-05-05 23:18 | 51.55144 | -1.36918 | 20100 ft | 401 kts | 281° |
| 2026-05-05 23:18 | 51.55663 | -1.41319 | 19695 ft | 400 kts | 281° |
| 2026-05-05 23:18 | 51.56174 | -1.45692 | 19285 ft | 397 kts | 281° |
| 2026-05-05 23:18 | 51.56675 | -1.49998 | 18881 ft | 395 kts | 281° |
| 2026-05-05 23:19 | 51.57178 | -1.54329 | 18479 ft | 392 kts | 281° |
| 2026-05-05 23:19 | 51.57677 | -1.58631 | 18081 ft | 390 kts | 281° |
| 2026-05-05 23:19 | 51.58171 | -1.62908 | 17681 ft | 387 kts | 281° |
| 2026-05-05 23:19 | 51.58639 | -1.67159 | 17278 ft | 385 kts | 278° |
| 2026-05-05 23:20 | 51.58966 | -1.71428 | 16893 ft | 383 kts | 276° |
| 2026-05-05 23:20 | 51.59240 | -1.75670 | 16499 ft | 380 kts | 276° |
| 2026-05-05 23:20 | 51.59525 | -1.79893 | 16100 ft | 377 kts | 276° |
| 2026-05-05 23:20 | 51.59818 | -1.84059 | 15609 ft | 371 kts | 276° |
| 2026-05-05 23:21 | 51.59800 | -1.88160 | 15047 ft | 366 kts | 260° |
| 2026-05-05 23:21 | 51.59072 | -1.91952 | 14930 ft | 343 kts | 246° |
| 2026-05-05 23:21 | 51.57966 | -1.95135 | 14726 ft | 318 kts | 237° |
| 2026-05-05 23:21 | 51.56789 | -1.97994 | 14300 ft | 298 kts | 237° |
| 2026-05-05 23:22 | 51.55674 | -2.00738 | 13564 ft | 289 kts | 238° |
| 2026-05-05 23:22 | 51.54591 | -2.03430 | 12700 ft | 286 kts | 238° |
| 2026-05-05 23:22 | 51.53520 | -2.06103 | 11825 ft | 283 kts | 238° |
| 2026-05-05 23:22 | 51.52465 | -2.08738 | 10928 ft | 279 kts | 239° |
| 2026-05-05 23:23 | 51.51545 | -2.11408 | 10282 ft | 267 kts | 239° |
| 2026-05-05 23:23 | 51.50713 | -2.14012 | 9540 ft | 259 kts | 241° |
| 2026-05-05 23:23 | 51.49882 | -2.16597 | 8502 ft | 262 kts | 242° |
| 2026-05-05 23:23 | 51.49050 | -2.19187 | 7737 ft | 255 kts | 243° |
| 2026-05-05 23:24 | 51.48263 | -2.21627 | 7369 ft | 242 kts | 243° |
| 2026-05-05 23:24 | 51.47747 | -2.23225 | 7131 ft | 241 kts | 243° |
| 2026-05-05 23:24 | 51.46729 | -2.26347 | 6667 ft | 235 kts | 244° |
| 2026-05-05 23:24 | 51.45973 | -2.28655 | 6342 ft | 231 kts | 244° |
| 2026-05-05 23:25 | 51.45220 | -2.30949 | 5995 ft | 232 kts | 243° |
| 2026-05-05 23:25 | 51.44719 | -2.32465 | 5769 ft | 232 kts | 243° |
| 2026-05-05 23:25 | 51.43965 | -2.34761 | 5401 ft | 233 kts | 244° |
| 2026-05-05 23:25 | 51.43218 | -2.37048 | 5084 ft | 232 kts | 243° |
| 2026-05-05 23:26 | 51.42458 | -2.39326 | 4729 ft | 232 kts | 243° |
| 2026-05-05 23:26 | 51.41707 | -2.41615 | 4386 ft | 232 kts | 244° |
| 2026-05-05 23:26 | 51.40953 | -2.43889 | 4055 ft | 230 kts | 243° |
| 2026-05-05 23:26 | 51.40206 | -2.46133 | 3735 ft | 235 kts | 242° |
| 2026-05-05 23:27 | 51.39444 | -2.48435 | 3407 ft | 229 kts | 249° |
| 2026-05-05 23:27 | 51.39134 | -2.50805 | 3044 ft | 208 kts | 268° |
| 2026-05-05 23:27 | 51.39013 | -2.53094 | 2762 ft | 202 kts | 269° |
| 2026-05-05 23:27 | 51.38903 | -2.55218 | 2512 ft | 185 kts | 270° |
| 2026-05-05 23:28 | 51.38827 | -2.57330 | 2258 ft | 190 kts | 270° |
| 2026-05-05 23:28 | 51.38752 | -2.59366 | 1990 ft | 177 kts | 270° |
| 2026-05-05 23:28 | 51.38676 | -2.61221 | 1714 ft | 160 kts | 268° |
| 2026-05-05 23:28 | 51.38610 | -2.62916 | 1475 ft | 145 kts | 269° |
| 2026-05-05 23:29 | 51.38550 | -2.64576 | 1344 ft | 151 kts | 269° |
| 2026-05-05 23:29 | 51.38487 | -2.66232 | 1096 ft | 146 kts | 269° |
| 2026-05-05 23:29 | 51.38422 | -2.67811 | 949 ft | 142 kts | 268° |
| 2026-05-05 23:29 | 51.38366 | -2.69398 | 814 ft | 144 kts | 269° |
| 2026-05-05 23:30 | 51.38301 | -2.70997 | 630 ft | 142 kts | 267° |
| 2026-05-05 23:30 | 51.38247 | -2.72419 | 618 ft | 108 kts | 266° |
| 2026-05-05 23:30 | 51.38222 | -2.73039 | 629 ft | 41 kts | 266° |
| 2026-05-05 23:30 | 51.38215 | -2.73271 | 628 ft | 7 kts | 272° |
| 2026-05-05 23:31 | 51.38246 | -2.73329 | 622 ft | 9 kts | 340° |
| 2026-05-05 23:31 | 51.38325 | -2.73337 | 625 ft | 12 kts | 10° |
| 2026-05-05 23:31 | 51.38381 | -2.73245 | 621 ft | 12 kts | 76° |
| 2026-05-05 23:31 | 51.38389 | -2.73102 | 620 ft | 13 kts | 86° |
| 2026-05-05 23:32 | 51.38395 | -2.72952 | 620 ft | 14 kts | 86° |
| 2026-05-05 23:32 | 51.38401 | -2.72793 | 620 ft | 14 kts | 86° |
| 2026-05-05 23:32 | 51.38408 | -2.72612 | 620 ft | 18 kts | 86° |
| 2026-05-05 23:32 | 51.38417 | -2.72412 | 629 ft | 18 kts | 86° |
| 2026-05-05 23:33 | 51.38423 | -2.72213 | 619 ft | 18 kts | 86° |
| 2026-05-05 23:33 | 51.38431 | -2.72054 | 619 ft | 4 kts | 78° |
| 2026-05-05 23:33 | 51.38461 | -2.72020 | 623 ft | 9 kts | 0° |
| 2026-05-05 23:33 | 51.38526 | -2.72029 | 619 ft | 8 kts | 354° |
| 2026-05-05 23:34 | 51.38559 | -2.72043 | 626 ft | 2 kts | 311° |
| 2026-05-05 23:34 | 51.38559 | -2.72075 | 619 ft | 4 kts | 263° |
| 2026-05-05 23:34 | 51.38558 | -2.72085 | 619 ft | 0 kts | 264° |